Time;durP1;ratioP1;P1;durP2;ratioP2;P2;SDS_P1;SDS_P2;PMS_P1;PMS_P2;Temp;Humidity;BMP_temperature;BMP_pressure;BME280_temperature;BME280_humidity;BME280_pressure;Samples;Min_cycle;Max_cycle;Signal;HPM_P1;HPM_P2
2024/01/26 00:01:39;;;;;;;4.77;2.20;;;12.70;99.90;;;12.89;68.76;102048.22;6117972;22;98500;-37
2024/01/26 00:04:05;;;;;;;2.50;1.97;;;12.70;99.90;;;12.84;68.81;102048.28;6118031;22;99876;-38
2024/01/26 00:06:31;;;;;;;4.23;2.00;;;12.70;99.90;;;12.88;66.78;102051.78;6104683;22;99650;-38
2024/01/26 00:08:56;;;;;;;3.17;1.90;;;12.70;99.90;;;12.91;66.01;102044.63;6116039;22;97617;-38
2024/01/26 00:11:23;;;;;;;4.97;2.27;;;12.70;99.90;;;12.93;67.45;102049.88;6111410;22;98191;-38
2024/01/26 00:13:49;;;;;;;2.80;2.00;;;12.70;99.90;;;12.92;68.06;102040.19;6088558;22;99196;-39
2024/01/26 00:16:15;;;;;;;3.87;1.80;;;12.70;99.90;;;12.89;68.15;102040.25;6099938;22;97701;-37
2024/01/26 00:18:40;;;;;;;3.37;2.20;;;12.70;99.90;;;12.87;65.94;102042.06;6118592;22;97740;-38
2024/01/26 00:21:07;;;;;;;6.50;2.13;;;12.70;99.90;;;12.86;68.61;102040.31;6092855;22;101413;-39
2024/01/26 00:23:34;;;;;;;5.17;2.07;;;12.70;99.90;;;12.79;68.41;102040.47;6120777;22;99240;-40
2024/01/26 00:26:00;;;;;;;5.43;2.37;;;12.70;99.90;;;12.77;69.53;102042.28;6103050;22;97709;-40
2024/01/26 00:28:26;;;;;;;3.07;1.67;;;12.70;99.90;;;12.76;69.91;102037.03;6113556;22;97438;-36
2024/01/26 00:30:52;;;;;;;2.83;1.60;;;12.60;99.90;;;12.86;62.57;102035.00;6112261;22;99459;-37
2024/01/26 00:33:18;;;;;;;4.87;2.33;;;12.70;99.90;;;12.88;67.75;102027.94;6115069;22;97747;-38
2024/01/26 00:35:44;;;;;;;5.10;1.97;;;12.70;99.90;;;12.88;66.42;102034.09;6089545;22;100433;-38
2024/01/26 00:38:09;;;;;;;3.83;2.30;;;12.70;99.90;;;12.90;64.07;102031.41;6090436;22;97505;-38
2024/01/26 00:40:35;;;;;;;4.37;2.40;;;12.70;99.90;;;12.90;68.41;102031.41;6118421;22;117224;-39
2024/01/26 00:43:01;;;;;;;2.27;1.63;;;12.70;99.90;;;12.91;68.25;102025.22;6121471;22;99091;-45
2024/01/26 00:45:27;;;;;;;5.27;2.30;;;12.70;99.90;;;12.87;68.52;102016.44;6116942;22;112444;-44
2024/01/26 00:47:53;;;;;;;3.60;2.13;;;12.70;99.90;;;12.81;69.70;102017.47;6117555;22;98030;-37
2024/01/26 00:50:18;;;;;;;8.10;2.27;;;12.70;99.90;;;12.82;69.32;102021.84;6118659;22;98789;-37
2024/01/26 00:52:44;;;;;;;5.53;2.37;;;12.70;99.90;;;12.84;69.07;102020.94;6119454;22;100050;-38
2024/01/26 00:55:10;;;;;;;3.63;2.33;;;12.70;99.90;;;12.83;69.17;102020.06;6117769;22;102109;-38
2024/01/26 00:57:36;;;;;;;8.83;2.63;;;12.70;99.90;;;12.77;69.95;102014.94;6083597;22;100135;-38
2024/01/26 01:00:07;;;;;;;3.60;2.00;;;12.60;99.90;;;12.77;69.65;102015.81;6113322;22;98462;-38
2024/01/26 01:02:35;;;;;;;4.60;2.20;;;12.60;99.90;;;12.74;69.89;102015.00;6112877;22;103714;-38
2024/01/26 01:05:01;;;;;;;4.03;2.10;;;12.60;99.90;;;12.70;70.92;102006.25;6116430;22;111706;-38
2024/01/26 01:07:27;;;;;;;3.67;2.57;;;12.50;99.90;;;12.64;70.91;101998.47;6120630;22;97362;-43
2024/01/26 01:09:53;;;;;;;4.70;2.30;;;12.50;99.90;;;12.56;71.34;102005.69;6118606;22;100008;-38
2024/01/26 01:12:18;;;;;;;4.70;2.60;;;12.40;99.90;;;12.52;72.29;102004.03;6132579;22;102628;-39
2024/01/26 01:14:44;;;;;;;3.53;2.33;;;12.40;99.90;;;12.51;72.34;101997.88;6141639;22;105091;-37
2024/01/26 01:17:11;;;;;;;6.67;2.60;;;12.40;99.90;;;12.55;70.64;102003.94;6136412;22;103984;-41
2024/01/26 01:19:37;;;;;;;4.60;2.10;;;12.40;99.90;;;12.56;71.13;102002.16;6142592;22;97514;-39
2024/01/26 01:22:03;;;;;;;3.93;2.03;;;12.40;99.90;;;12.58;69.25;102003.88;6116823;22;126651;-38
2024/01/26 01:24:29;;;;;;;4.13;2.20;;;12.50;99.90;;;12.56;71.83;102002.16;6114027;22;97435;-38
2024/01/26 01:26:54;;;;;;;4.53;2.37;;;12.40;99.90;;;12.56;71.16;102000.41;6140103;22;107260;-39
2024/01/26 01:29:20;;;;;;;2.63;1.67;;;12.50;99.90;;;12.55;68.98;101998.66;6143415;22;111247;-37
2024/01/26 01:31:46;;;;;;;4.13;2.40;;;12.50;99.90;;;12.65;66.90;102002.84;6144476;22;112737;-38
2024/01/26 01:34:12;;;;;;;3.70;2.40;;;12.50;99.90;;;12.58;71.80;102003.88;6145502;22;97269;-36
2024/01/26 01:36:38;;;;;;;5.63;2.57;;;12.50;99.90;;;12.57;71.56;102007.44;6141912;22;108636;-38
2024/01/26 01:39:03;;;;;;;6.57;2.90;;;12.50;99.90;;;12.57;72.18;102006.56;6146685;22;116293;-39
2024/01/26 01:41:29;;;;;;;7.67;2.93;;;12.40;99.90;;;12.57;71.96;102018.00;6142417;22;122631;-35
2024/01/26 01:43:56;;;;;;;6.07;2.67;;;12.50;99.90;;;12.59;68.11;102018.88;6144965;22;97162;-38
2024/01/26 01:46:22;;;;;;;5.10;2.80;;;12.50;99.90;;;12.55;72.14;102014.53;6130521;22;97120;-38
2024/01/26 01:48:52;;;;;;;7.40;2.50;;;12.50;99.90;;;12.58;71.46;102009.16;6123155;22;98697;-38
2024/01/26 01:51:18;;;;;;;4.73;2.47;;;12.50;99.90;;;12.55;71.81;102011.88;6142092;22;100343;-38
2024/01/26 01:53:44;;;;;;;4.87;2.30;;;12.40;99.90;;;12.54;72.14;102002.22;6142662;22;97412;-39
2024/01/26 01:56:11;;;;;;;5.87;2.07;;;12.40;99.90;;;12.55;71.85;102003.94;6141529;22;97085;-38
2024/01/26 01:58:43;;;;;;;5.10;2.53;;;12.40;99.90;;;12.52;72.38;102004.91;6128029;22;98458;-38
2024/01/26 02:01:10;;;;;;;8.03;3.23;;;12.40;99.90;;;12.51;72.08;102003.16;6139345;22;125350;-34
2024/01/26 02:03:36;;;;;;;5.77;2.50;;;12.40;99.90;;;12.52;71.33;101993.44;6144185;22;97074;-44
2024/01/26 02:06:03;;;;;;;7.40;2.87;;;12.40;99.90;;;12.55;72.08;102001.31;6148817;22;97251;-38
2024/01/26 02:08:28;;;;;;;5.87;2.50;;;12.40;99.90;;;12.59;71.78;102002.13;6113576;22;100926;-37
2024/01/26 02:10:54;;;;;;;6.33;2.60;;;12.40;99.90;;;12.57;71.13;102002.13;6146930;22;97907;-38
2024/01/26 02:13:20;;;;;;;3.93;2.43;;;12.50;99.90;;;12.56;70.63;101989.81;6119608;22;113259;-38
2024/01/26 02:15:45;;;;;;;3.73;2.27;;;12.50;99.90;;;12.58;71.46;101977.41;6141899;22;97189;-37
2024/01/26 02:18:11;;;;;;;4.07;2.47;;;12.50;99.90;;;12.56;71.70;101984.50;6140420;22;120406;-39
2024/01/26 02:20:37;;;;;;;3.93;2.10;;;12.40;99.90;;;12.56;71.82;101979.22;6124905;22;119962;-39
2024/01/26 02:23:03;;;;;;;3.67;2.23;;;12.40;99.90;;;12.56;71.83;101983.66;6144462;22;99370;-38
2024/01/26 02:25:29;;;;;;;3.03;2.23;;;12.40;99.90;;;12.53;71.84;101984.59;6141617;22;97567;-38
2024/01/26 02:27:54;;;;;;;6.13;2.73;;;12.40;99.90;;;12.54;71.79;101981.03;6138896;22;114764;-38
2024/01/26 02:30:20;;;;;;;3.37;2.33;;;12.40;99.90;;;12.53;72.04;101968.72;6141866;22;97872;-37
2024/01/26 02:32:46;;;;;;;5.43;2.27;;;12.40;99.90;;;12.54;71.07;101970.44;6140546;22;97000;-35
2024/01/26 02:35:12;;;;;;;5.50;2.13;;;12.40;99.90;;;12.55;71.85;101966.03;6125699;22;98260;-37
2024/01/26 02:37:37;;;;;;;4.43;2.60;;;12.40;99.90;;;12.55;70.97;101972.19;6140070;22;99405;-37
2024/01/26 02:40:04;;;;;;;3.83;2.30;;;12.40;99.90;;;12.56;71.76;101962.47;6144017;22;115444;-37
2024/01/26 02:42:30;;;;;;;3.70;2.13;;;12.40;99.90;;;12.58;71.11;101956.22;6114306;22;100820;-37
2024/01/26 02:44:55;;;;;;;3.67;2.30;;;12.40;99.90;;;12.59;71.91;101957.13;6143057;22;97776;-39
2024/01/26 02:47:21;;;;;;;4.07;2.30;;;12.40;99.90;;;12.60;71.29;101951.78;6115397;22;123068;-41
2024/01/26 02:49:47;;;;;;;5.83;2.83;;;12.40;99.90;;;12.62;70.95;101947.31;6142637;22;115348;-38
2024/01/26 02:52:13;;;;;;;6.07;2.23;;;12.50;99.90;;;12.61;71.24;101945.59;6143521;22;97474;-42
2024/01/26 02:54:38;;;;;;;4.17;2.17;;;12.40;99.90;;;12.57;72.09;101943.91;6125704;22;98551;-39
2024/01/26 02:57:04;;;;;;;4.83;2.27;;;12.40;99.90;;;12.63;68.91;101935.84;6126749;22;121083;-38
2024/01/26 02:59:30;;;;;;;5.00;2.73;;;12.50;99.90;;;12.60;71.94;101938.56;6142233;22;126367;-38
2024/01/26 03:01:56;;;;;;;3.33;1.90;;;12.40;99.90;;;12.59;72.04;101936.81;6140904;22;97190;-37
2024/01/26 03:04:21;;;;;;;5.83;2.43;;;12.40;99.90;;;12.57;72.03;101943.91;6126297;22;99702;-38
2024/01/26 03:06:47;;;;;;;5.83;2.73;;;12.40;99.90;;;12.56;71.78;101936.88;6138445;22;98562;-38
2024/01/26 03:09:13;;;;;;;2.80;1.93;;;12.40;99.90;;;12.55;72.17;101937.78;6140523;22;99456;-36
2024/01/26 03:11:42;;;;;;;4.03;2.60;;;12.40;99.90;;;12.56;71.78;101936.88;6128538;22;97062;-39
2024/01/26 03:14:09;;;;;;;5.13;2.53;;;12.40;99.90;;;12.55;71.84;101934.25;6140262;22;97695;-35
2024/01/26 03:16:38;;;;;;;3.10;2.53;;;12.40;99.90;;;12.55;72.00;101943.06;6144904;22;105415;-39
2024/01/26 03:19:03;;;;;;;5.03;2.37;;;12.40;99.90;;;12.53;72.44;101944.88;6128689;22;101718;-37
2024/01/26 03:21:29;;;;;;;3.63;2.73;;;12.40;99.90;;;12.52;72.23;101937.84;6140402;22;105527;-36
2024/01/26 03:23:55;;;;;;;5.17;2.53;;;12.40;99.90;;;12.54;72.49;101943.97;6142126;22;97527;-38
2024/01/26 03:26:21;;;;;;;3.87;2.37;;;12.40;99.90;;;12.52;72.62;101945.78;6141591;22;99690;-38
2024/01/26 03:28:47;;;;;;;7.03;2.40;;;12.40;99.90;;;12.52;72.69;101945.78;6141047;22;127834;-36
2024/01/26 03:31:13;;;;;;;5.27;2.67;;;12.40;99.90;;;12.54;72.54;101937.81;6141795;22;97145;-39
2024/01/26 03:33:40;;;;;;;4.97;2.43;;;12.40;99.90;;;12.54;72.49;101941.34;6141032;22;97547;-37
2024/01/26 03:36:07;;;;;;;4.27;2.60;;;12.40;99.90;;;12.56;72.14;101936.88;6141049;22;98033;-37
2024/01/26 03:38:33;;;;;;;3.20;1.90;;;12.40;99.90;;;12.52;72.51;101940.50;6147899;22;98892;-37
2024/01/26 03:41:00;;;;;;;4.33;2.40;;;12.40;99.90;;;12.54;72.35;101936.03;6128689;22;97288;-38
2024/01/26 03:43:26;;;;;;;3.00;2.00;;;12.40;99.90;;;12.53;71.86;101936.94;6142941;22;97490;-38
2024/01/26 03:45:51;;;;;;;4.50;2.40;;;12.40;99.90;;;12.54;72.36;101938.69;6143264;22;97892;-37
2024/01/26 03:48:17;;;;;;;3.23;2.47;;;12.40;99.90;;;12.62;71.22;101925.28;6140090;22;121602;-37
2024/01/26 03:50:45;;;;;;;5.90;3.23;;;12.40;99.90;;;12.57;72.66;101917.44;6142332;22;97197;-37
2024/01/26 03:53:11;;;;;;;4.97;2.67;;;12.40;99.90;;;12.54;72.84;101936.03;6140617;22;100549;-37
2024/01/26 03:55:37;;;;;;;4.43;2.40;;;12.40;99.90;;;12.51;72.94;101933.47;6139784;22;106540;-35
2024/01/26 03:58:03;;;;;;;3.97;2.67;;;12.40;99.90;;;12.50;73.20;101927.31;6145465;22;97708;-37
2024/01/26 04:00:29;;;;;;;4.53;2.43;;;12.40;99.90;;;12.48;73.33;101922.97;6143477;22;97173;-38
2024/01/26 04:02:56;;;;;;;3.73;2.33;;;12.40;99.90;;;12.49;73.34;101922.06;6114200;22;97643;-38
2024/01/26 04:05:22;;;;;;;4.20;2.70;;;12.40;99.90;;;12.50;73.21;101905.25;6111038;22;103185;-36
2024/01/26 04:07:48;;;;;;;5.77;2.80;;;12.40;99.90;;;12.48;73.08;101907.09;6139380;22;100300;-38
2024/01/26 04:10:13;;;;;;;4.87;2.40;;;12.40;99.90;;;12.60;66.05;101901.50;6141561;22;100762;-39
2024/01/26 04:12:39;;;;;;;4.13;2.40;;;12.40;99.90;;;12.57;73.12;101901.53;6142139;22;97485;-43
2024/01/26 04:15:05;;;;;;;3.80;2.60;;;12.50;99.90;;;12.62;71.81;101891.75;6141724;22;127502;-38
2024/01/26 04:17:31;;;;;;;4.20;2.40;;;12.50;99.90;;;12.71;72.74;101883.53;6140755;22;124166;-37
2024/01/26 04:19:57;;;;;;;6.30;2.37;;;12.60;99.90;;;12.75;67.87;101872.00;6126361;22;97067;-38
2024/01/26 04:22:23;;;;;;;5.67;2.67;;;12.60;99.90;;;12.79;71.83;101865.69;6139875;22;97214;-38
2024/01/26 04:24:48;;;;;;;5.90;2.40;;;12.70;99.90;;;12.79;72.08;101860.41;6140649;22;120942;-38
2024/01/26 04:27:14;;;;;;;4.07;2.57;;;12.70;99.90;;;12.80;72.49;101866.56;6136754;22;109852;-36
2024/01/26 04:29:40;;;;;;;3.30;2.27;;;12.70;99.90;;;12.82;72.41;101860.31;6141424;22;110301;-37
2024/01/26 04:32:06;;;;;;;7.80;2.50;;;12.70;99.90;;;12.80;72.49;101861.28;6145531;22;97575;-38
2024/01/26 04:34:31;;;;;;;3.80;2.50;;;12.70;99.90;;;12.79;71.96;101854.25;6142004;22;102771;-36
2024/01/26 04:36:57;;;;;;;4.27;2.30;;;12.70;99.90;;;12.80;72.29;101856.84;6141979;22;112081;-38
2024/01/26 04:39:23;;;;;;;6.00;2.67;;;12.70;99.90;;;12.84;72.36;101848.81;6138805;22;101151;-37
2024/01/26 04:41:49;;;;;;;5.00;2.23;;;12.70;99.90;;;12.90;71.01;101852.19;6141006;22;97641;-36
2024/01/26 04:44:14;;;;;;;3.13;2.07;;;12.80;99.90;;;12.89;71.20;101839.00;6127226;22;122872;-37
2024/01/26 04:46:40;;;;;;;3.13;2.00;;;12.80;99.90;;;12.96;69.24;101845.84;6123894;22;98479;-36
2024/01/26 04:49:07;;;;;;;4.70;2.27;;;12.80;99.90;;;12.91;72.13;101847.75;6142952;22;104531;-37
2024/01/26 04:51:32;;;;;;;3.87;2.27;;;12.80;99.90;;;12.99;71.32;101843.97;6144493;22;97035;-37
2024/01/26 04:53:58;;;;;;;3.67;1.90;;;12.90;99.90;;;12.99;70.74;101843.13;6140160;22;122982;-37
2024/01/26 04:56:24;;;;;;;4.53;2.60;;;12.90;99.90;;;12.98;71.22;101834.31;6108616;22;99775;-37
2024/01/26 04:58:50;;;;;;;3.83;2.50;;;12.90;99.90;;;12.93;71.47;101830.91;6138589;22;97321;-37
2024/01/26 05:01:16;;;;;;;3.37;2.20;;;12.80;99.90;;;13.02;69.44;101830.69;6138812;22;98386;-39
2024/01/26 05:03:41;;;;;;;2.93;1.90;;;12.90;99.90;;;12.98;70.94;101830.78;6141502;22;114866;-37
2024/01/26 05:06:07;;;;;;;2.90;1.97;;;12.90;99.90;;;13.01;67.93;101828.03;6139218;22;97920;-37
2024/01/26 05:08:33;;;;;;;2.80;2.00;;;12.90;99.90;;;13.01;66.65;101818.31;6146580;22;97090;-38
2024/01/26 05:10:59;;;;;;;2.67;1.93;;;12.90;99.90;;;12.99;70.26;101824.56;6140972;22;100928;-36
2024/01/26 05:13:24;;;;;;;2.73;2.00;;;12.90;99.90;;;13.00;67.55;101828.97;6140371;22;97932;-37
2024/01/26 05:15:50;;;;;;;3.10;1.97;;;12.90;99.90;;;13.08;69.00;101824.34;6141811;22;97427;-39
2024/01/26 05:18:16;;;;;;;3.10;2.07;;;13.00;99.90;;;13.16;68.83;101816.16;6141130;22;97353;-40
2024/01/26 05:20:42;;;;;;;5.23;1.37;;;13.00;99.90;;;13.23;62.40;101813.34;6115827;22;97063;-39
2024/01/26 05:23:08;;;;;;;3.40;1.97;;;13.10;99.90;;;13.35;63.28;101810.34;6123490;22;119884;-38
2024/01/26 05:25:34;;;;;;;2.77;1.73;;;13.20;99.90;;;13.45;64.85;101812.69;6143242;22;112599;-37
2024/01/26 05:27:59;;;;;;;2.70;1.63;;;13.30;99.90;;;13.40;64.29;101820.81;6136930;22;97312;-37
2024/01/26 05:30:26;;;;;;;1.60;1.23;;;13.30;99.90;;;13.45;61.58;101808.28;6139903;22;100326;-36
2024/01/26 05:32:52;;;;;;;2.13;1.50;;;13.30;99.90;;;13.54;64.01;101801.84;6139611;22;100350;-37
2024/01/26 05:35:17;;;;;;;5.23;2.00;;;13.40;99.90;;;13.47;66.91;101802.97;6116908;22;120756;-37
2024/01/26 05:37:43;;;;;;;2.40;1.43;;;13.40;99.90;;;13.42;65.43;101812.81;6125865;22;97244;-39
2024/01/26 05:40:10;;;;;;;3.30;1.87;;;13.30;99.90;;;13.35;67.25;101807.69;6140335;22;97536;-38
2024/01/26 05:42:36;;;;;;;3.07;1.90;;;13.20;99.90;;;13.27;68.14;101814.97;6144250;22;98643;-38
2024/01/26 05:45:03;;;;;;;3.67;1.67;;;13.10;99.90;;;13.22;68.46;101795.72;6114862;22;117633;-38
2024/01/26 05:47:29;;;;;;;3.63;1.87;;;13.10;99.90;;;13.26;66.98;101792.03;6142597;22;97097;-36
2024/01/26 05:49:57;;;;;;;1.87;1.20;;;13.10;99.90;;;13.37;62.28;101794.41;6141156;22;105210;-37
2024/01/26 05:52:22;;;;;;;3.23;1.50;;;13.20;99.90;;;13.37;62.23;101786.44;6115806;22;120117;-37
2024/01/26 05:54:48;;;;;;;2.73;0.80;;;13.20;99.90;;;13.50;60.63;101781.66;6143470;22;98175;-38
2024/01/26 05:57:15;;;;;;;1.97;1.20;;;13.30;99.90;;;13.55;64.01;101774.41;6140412;22;97832;-35
2024/01/26 05:59:42;;;;;;;1.90;0.90;;;13.40;99.90;;;13.64;58.57;101779.44;6143305;22;97532;-37
2024/01/26 06:02:08;;;;;;;1.10;0.70;;;13.40;99.90;;;13.76;58.37;101775.56;6091319;22;101135;-39
2024/01/26 06:04:33;;;;;;;0.77;0.60;;;13.60;99.90;;;13.80;58.13;101772.75;6120632;22;97959;-37
2024/01/26 06:07:00;;;;;;;3.70;2.10;;;13.70;99.90;;;13.85;61.77;101770.81;6129200;22;113014;-39
2024/01/26 06:09:26;;;;;;;1.50;0.80;;;13.70;99.90;;;13.97;56.75;101751.00;6145483;22;97996;-37
2024/01/26 06:11:52;;;;;;;1.07;0.57;;;13.90;99.90;;;14.13;56.18;101738.09;6144005;22;109218;-36
2024/01/26 06:14:17;;;;;;;0.43;0.43;;;14.10;99.90;;;14.27;55.87;101730.53;6115091;22;102540;-36
2024/01/26 06:16:47;;;;;;;1.63;1.00;;;14.30;99.90;;;14.34;57.26;101732.06;6106937;22;110232;-36
2024/01/26 06:19:12;;;;;;;1.53;0.60;;;14.40;99.90;;;14.40;55.75;101731.84;6142010;22;97461;-37
2024/01/26 06:21:38;;;;;;;0.87;0.73;;;14.50;99.90;;;14.49;55.22;101733.38;6141975;22;120284;-37
2024/01/26 06:24:04;;;;;;;3.87;0.93;;;14.60;99.90;;;14.49;56.28;101742.19;6145428;22;124311;-37
2024/01/26 06:26:33;;;;;;;0.97;0.73;;;14.60;99.90;;;14.43;55.53;101739.69;6142796;22;97111;-38
2024/01/26 06:28:59;;;;;;;1.47;0.90;;;14.40;99.90;;;14.42;59.07;101735.31;6143360;22;102376;-39
2024/01/26 06:31:27;;;;;;;1.43;0.80;;;14.40;99.90;;;14.20;62.39;101729.88;6128560;22;98840;-38
2024/01/26 06:33:53;;;;;;;2.00;0.80;;;14.20;99.90;;;14.19;60.79;101716.69;6141587;22;127222;-38
2024/01/26 06:36:19;;;;;;;1.23;0.90;;;14.10;99.90;;;14.25;60.18;101711.16;6100807;22;97045;-38
2024/01/26 06:38:45;;;;;;;1.27;1.00;;;14.20;99.90;;;14.20;60.80;101707.78;6136108;22;112804;-37
2024/01/26 06:41:10;;;;;;;1.00;0.60;;;14.20;99.90;;;14.29;56.85;101702.16;6115917;22;97276;-38
2024/01/26 06:43:36;;;;;;;0.90;0.40;;;14.20;99.90;;;14.32;55.57;101704.72;6124172;22;109674;-38
2024/01/26 06:46:02;;;;;;;1.13;0.80;;;14.20;99.90;;;14.34;58.13;101700.22;6109656;22;98883;-39
2024/01/26 06:48:28;;;;;;;0.67;0.60;;;14.30;99.90;;;14.29;56.93;101696.84;6123475;22;97785;-39
2024/01/26 06:50:53;;;;;;;2.97;1.10;;;14.20;99.90;;;14.16;61.75;101691.09;6139356;22;107952;-39
2024/01/26 06:53:21;;;;;;;5.83;1.33;;;14.10;99.90;;;14.02;64.00;101697.78;6104784;22;97569;-37
2024/01/26 06:55:47;;;;;;;2.77;0.60;;;14.00;99.90;;;14.02;61.51;101687.16;6141285;22;97450;-39
2024/01/26 06:58:13;;;;;;;6.77;1.87;;;13.90;99.90;;;13.86;64.79;101692.97;6144605;22;97630;-38
2024/01/26 07:00:38;;;;;;;21.23;1.70;;;13.80;99.90;;;13.79;63.66;101691.47;6143015;22;109147;-37
2024/01/26 07:03:04;;;;;;;13.87;1.67;;;13.70;99.90;;;13.71;65.45;101682.88;6147781;22;119759;-38
2024/01/26 07:05:30;;;;;;;7.00;1.00;;;13.60;99.90;;;13.71;62.03;101688.19;6125904;22;107986;-37
2024/01/26 07:07:56;;;;;;;0.90;0.70;;;13.60;99.90;;;13.64;60.94;101687.53;6142930;22;105645;-39
2024/01/26 07:10:23;;;;;;;2.57;0.80;;;13.50;99.90;;;13.51;66.40;101686.19;6143669;22;99039;-37
2024/01/26 07:12:49;;;;;;;0.97;0.87;;;13.50;99.90;;;13.53;65.82;101678.16;6141527;22;97671;-38
2024/01/26 07:15:14;;;;;;;1.17;0.83;;;13.50;99.90;;;13.57;65.02;101679.78;6118537;22;97531;-37
2024/01/26 07:17:40;;;;;;;2.23;1.00;;;13.50;99.90;;;13.56;62.30;101672.75;6144142;22;97314;-34
2024/01/26 07:20:07;;;;;;;1.93;0.80;;;13.50;99.90;;;13.54;65.92;101669.31;6147839;22;100008;-39
2024/01/26 07:22:32;;;;;;;1.67;0.73;;;13.50;99.90;;;13.61;64.03;101673.50;6129356;22;103759;-41
2024/01/26 07:24:58;;;;;;;0.87;0.60;;;13.50;99.90;;;13.63;62.42;101674.31;6143691;22;97202;-36
2024/01/26 07:27:24;;;;;;;1.33;0.70;;;13.50;99.90;;;13.47;66.64;101675.72;6142800;22;97410;-36
2024/01/26 07:29:50;;;;;;;2.73;0.80;;;13.40;99.90;;;13.43;67.48;101669.63;6135194;22;98065;-37
2024/01/26 07:32:16;;;;;;;1.10;0.70;;;13.40;99.90;;;13.47;61.48;101667.78;6124389;22;97852;-42
2024/01/26 07:34:41;;;;;;;2.73;1.10;;;13.30;99.90;;;13.38;67.49;101680.38;6144060;22;97324;-38
2024/01/26 07:37:07;;;;;;;1.47;0.70;;;13.30;99.90;;;13.39;64.81;101679.47;6143362;22;103840;-38
2024/01/26 07:39:33;;;;;;;2.10;0.90;;;13.30;99.90;;;13.36;62.27;101666.31;6119786;22;99177;-39
2024/01/26 07:41:59;;;;;;;1.90;1.37;;;13.30;99.90;;;13.34;68.25;101668.16;6127214;22;97964;-37
2024/01/26 07:44:25;;;;;;;3.63;1.63;;;13.30;99.90;;;13.36;67.95;101666.31;6142461;22;97391;-37
2024/01/26 07:46:51;;;;;;;3.43;1.43;;;13.30;99.90;;;13.32;68.11;101664.69;6123494;22;98686;-38
2024/01/26 07:49:17;;;;;;;1.00;0.90;;;13.30;99.90;;;13.34;68.24;101673.47;6141681;22;101508;-38
2024/01/26 07:51:42;;;;;;;1.60;1.17;;;13.30;99.90;;;13.30;68.91;101666.50;6123278;22;97643;-39
2024/01/26 07:54:08;;;;;;;2.87;1.30;;;13.30;99.90;;;13.22;69.87;101673.81;6140199;22;114019;-40
2024/01/26 07:56:34;;;;;;;2.10;1.07;;;13.20;99.90;;;13.28;63.42;101665.69;6145743;22;102172;-36
2024/01/26 07:59:01;;;;;;;2.40;1.30;;;13.20;99.90;;;13.29;68.17;101664.75;6141397;22;99076;-38
2024/01/26 08:01:27;;;;;;;1.73;1.43;;;13.20;99.90;;;13.35;67.01;101669.88;6139176;22;97384;-38
2024/01/26 08:03:52;;;;;;;2.17;1.13;;;13.30;99.90;;;13.35;68.17;101667.25;6126173;22;106693;-39
2024/01/26 08:06:18;;;;;;;2.87;1.80;;;13.30;99.90;;;13.29;70.31;101675.34;6137471;22;101405;-36
2024/01/26 08:08:44;;;;;;;2.87;1.53;;;13.30;99.90;;;13.28;69.87;101678.94;6115375;22;120026;-37
2024/01/26 08:11:13;;;;;;;3.43;1.60;;;13.30;99.90;;;13.21;69.72;101673.88;6021158;22;120283;-38
2024/01/26 08:13:39;;;;;;;2.40;1.90;;;13.20;99.90;;;13.10;73.10;101682.09;6020610;22;97943;-39
2024/01/26 08:16:06;;;;;;;4.40;1.47;;;13.20;99.90;;;13.10;73.44;101674.16;6107463;22;98058;-38
2024/01/26 08:18:31;;;;;;;4.50;1.60;;;13.10;99.90;;;13.15;71.66;101677.53;6063254;22;98072;-37
2024/01/26 08:20:57;;;;;;;1.93;1.17;;;13.20;99.90;;;13.13;71.40;101668.75;6120121;22;124735;-37
2024/01/26 08:23:23;;;;;;;5.53;2.13;;;13.20;99.90;;;13.17;72.97;101673.06;6095335;22;98410;-37
2024/01/26 08:25:49;;;;;;;4.10;2.30;;;13.20;99.90;;;13.15;73.27;101672.22;6089531;22;102026;-36
2024/01/26 08:28:17;;;;;;;2.50;1.70;;;13.20;99.90;;;13.11;74.38;101670.59;6116323;22;124289;-38
2024/01/26 08:30:43;;;;;;;6.23;2.37;;;13.10;99.90;;;13.17;70.48;101659.84;6079287;22;104536;-37
2024/01/26 08:33:09;;;;;;;6.63;2.70;;;13.10;99.90;;;13.21;73.58;101645.59;6107955;22;103903;-38
2024/01/26 08:35:35;;;;;;;4.20;2.17;;;13.20;99.90;;;13.19;74.35;101647.44;6117940;22;100680;-37
2024/01/26 08:38:03;;;;;;;6.50;2.50;;;13.20;99.90;;;13.16;74.74;101647.47;6093944;22;99422;-38
2024/01/26 08:40:29;;;;;;;4.10;1.83;;;13.20;99.90;;;13.14;73.90;101654.59;6036767;22;100088;-38
2024/01/26 08:42:55;;;;;;;2.03;1.30;;;13.20;99.90;;;13.08;75.45;101654.81;6049676;22;100675;-38
2024/01/26 08:45:21;;;;;;;8.63;1.80;;;13.20;99.90;;;13.10;75.48;101658.25;6097724;22;97647;-37
2024/01/26 08:47:47;;;;;;;3.10;1.43;;;13.10;99.90;;;13.07;75.73;101663.66;6078795;22;99378;-38
2024/01/26 08:50:13;;;;;;;2.93;1.77;;;13.10;99.90;;;13.05;76.17;101670.78;6114367;22;98150;-36
2024/01/26 08:52:38;;;;;;;2.57;1.23;;;13.10;99.90;;;13.03;76.48;101675.28;6119397;22;97658;-38
2024/01/26 08:55:05;;;;;;;2.60;1.67;;;13.10;99.90;;;13.05;70.95;101676.97;6116229;22;101459;-39
2024/01/26 08:57:31;;;;;;;2.90;1.40;;;13.10;99.90;;;13.00;76.61;101681.50;6025141;22;99508;-37
2024/01/26 08:59:57;;;;;;;1.50;0.90;;;13.10;99.90;;;13.06;76.13;101672.53;6116193;22;98276;-37
2024/01/26 09:02:22;;;;;;;4.70;1.30;;;13.10;99.90;;;13.03;74.80;101683.22;6113486;22;97617;-36
2024/01/26 09:04:48;;;;;;;1.63;1.00;;;13.10;99.90;;;13.11;73.39;101675.88;6078725;22;104302;-36
2024/01/26 09:07:17;;;;;;;2.23;1.10;;;13.20;99.90;;;13.10;76.71;101690.06;6051168;22;103688;-35
2024/01/26 09:09:43;;;;;;;1.40;0.70;;;13.20;99.90;;;13.09;77.14;101685.66;6090068;22;97986;-36
2024/01/26 09:12:11;;;;;;;1.03;0.80;;;13.20;99.90;;;13.14;73.26;101686.38;6122170;22;107804;-36
2024/01/26 09:14:37;;;;;;;1.13;0.80;;;13.20;99.90;;;13.20;74.99;101696.00;6116925;22;98365;-36
2024/01/26 09:17:03;;;;;;;1.00;0.70;;;13.20;99.90;;;13.19;76.04;101705.72;6111370;22;117809;-36
2024/01/26 09:19:32;;;;;;;2.50;0.70;;;13.30;99.90;;;13.23;76.17;101702.06;6114728;22;101861;-34
2024/01/26 09:21:58;;;;;;;1.17;0.70;;;13.30;99.90;;;13.31;75.53;101705.34;6094879;22;97464;-36
2024/01/26 09:24:24;;;;;;;2.73;0.53;;;13.40;99.90;;;13.32;75.98;101701.78;6094736;22;98741;-35
2024/01/26 09:26:50;;;;;;;2.03;0.97;;;13.40;99.90;;;13.36;70.82;101706.06;6022340;22;99399;-36
2024/01/26 09:29:15;;;;;;;2.00;1.03;;;13.40;99.90;;;13.43;75.01;101711.16;6089978;22;97980;-39
2024/01/26 09:31:41;;;;;;;1.17;0.70;;;13.50;99.90;;;13.36;75.97;101702.56;6054085;22;100587;-35
2024/01/26 09:34:10;;;;;;;1.83;0.63;;;13.40;99.90;;;13.45;74.39;101706.69;6105354;22;97628;-36
2024/01/26 09:36:36;;;;;;;2.70;0.87;;;13.50;99.90;;;13.41;76.10;101705.91;6060786;22;103598;-35
2024/01/26 09:39:02;;;;;;;1.27;0.80;;;13.40;99.90;;;13.44;72.78;101691.69;6117668;22;101264;-36
2024/01/26 09:41:27;;;;;;;3.30;1.10;;;13.50;99.90;;;13.43;75.60;101692.63;6075044;22;97935;-35
2024/01/26 09:43:53;;;;;;;1.33;0.73;;;13.50;99.90;;;13.47;74.75;101699.59;6094149;22;103529;-36
2024/01/26 09:46:20;;;;;;;1.30;0.70;;;13.60;99.90;;;13.48;73.67;101696.00;6036342;22;101320;-37
2024/01/26 09:48:53;;;;;;;0.57;0.40;;;13.60;99.90;;;13.57;69.74;101691.28;6113253;22;98590;-35
2024/01/26 09:51:19;;;;;;;1.63;0.63;;;13.70;99.90;;;13.63;70.78;101690.22;6081610;22;97629;-36
2024/01/26 09:53:46;;;;;;;0.60;0.30;;;13.80;99.90;;;13.67;71.59;101692.72;6061855;22;101094;-37
2024/01/26 09:56:13;;;;;;;1.00;0.63;;;13.80;99.90;;;13.84;69.19;101688.66;6074040;22;101021;-36
2024/01/26 09:58:39;;;;;;;0.50;0.30;;;13.90;99.90;;;13.79;72.08;101683.50;6098221;22;126114;-36
2024/01/26 10:01:07;;;;;;;0.60;0.37;;;14.00;99.90;;;13.98;67.43;101681.09;6092059;22;97395;-38
2024/01/26 10:03:33;;;;;;;0.40;0.30;;;14.10;99.90;;;13.88;72.90;101680.53;6100652;22;111545;-35
2024/01/26 10:05:59;;;;;;;0.73;0.43;;;14.20;99.90;;;13.93;71.84;101689.22;6086399;22;104503;-36